createdAt,value
2018-02-15T00:01:22.358Z,144.60
2018-02-15T00:03:50.098Z,162.40
2018-02-15T00:06:17.587Z,137.40
2018-02-15T00:08:45.052Z,228.47
2018-02-15T00:11:13.373Z,234.80
2018-02-15T00:13:40.839Z,417.70
2018-02-15T00:16:08.307Z,399.63
2018-02-15T00:18:36.369Z,268.77
2018-02-15T00:21:03.838Z,731.80
2018-02-15T00:23:31.319Z,584.75
2018-02-15T00:25:59.360Z,578.17
2018-02-15T00:28:27.137Z,536.55
2018-02-15T00:30:54.620Z,582.42
2018-02-15T00:33:22.468Z,401.45
2018-02-15T00:35:49.937Z,189.33
2018-02-15T00:38:17.422Z,171.18
2018-02-15T00:40:45.345Z,150.53
2018-02-15T00:43:12.824Z,171.40
2018-02-15T00:45:40.292Z,137.90
2018-02-15T00:48:08.034Z,113.50
2018-02-15T00:50:35.510Z,127.35
2018-02-15T00:53:02.977Z,110.10
2018-02-15T00:55:30.906Z,123.87
2018-02-15T00:57:58.377Z,127.77
2018-02-15T01:00:25.864Z,106.05
2018-02-15T01:02:54.022Z,121.30
2018-02-15T01:05:21.496Z,110.72
2018-02-15T01:07:49.128Z,106.90
2018-02-15T01:10:17.021Z,122.68
2018-02-15T01:12:44.844Z,109.18
2018-02-15T01:15:12.344Z,114.32
2018-02-15T01:17:40.333Z,109.30
2018-02-15T01:20:07.814Z,87.50
2018-02-15T01:22:35.289Z,96.75
2018-02-15T01:25:03.316Z,88.82
2018-02-15T01:27:30.784Z,89.75
2018-02-15T01:29:58.267Z,115.18
2018-02-15T01:32:25.993Z,99.55
2018-02-15T01:34:53.468Z,97.60
2018-02-15T01:37:20.948Z,117.28
2018-02-15T01:39:48.994Z,94.95
2018-02-15T01:42:16.469Z,144.57
2018-02-15T01:44:43.939Z,113.00
2018-02-15T01:47:11.991Z,97.00
2018-02-15T01:49:51.149Z,105.15
2018-02-15T01:52:18.792Z,108.93
2018-02-15T01:54:46.272Z,113.05
2018-02-15T01:57:13.751Z,131.07
2018-02-15T01:59:41.491Z,119.00
2018-02-15T02:02:08.970Z,129.15
2018-02-15T02:04:36.443Z,110.72
2018-02-15T02:07:04.559Z,134.15
2018-02-15T02:09:32.033Z,328.98
2018-02-15T02:11:59.516Z,329.58
2018-02-15T02:14:27.563Z,146.23
2018-02-15T02:16:55.068Z,129.80
2018-02-15T02:19:22.540Z,100.82
2018-02-15T02:21:50.560Z,105.03
2018-02-15T02:24:18.040Z,122.50
2018-02-15T02:26:45.517Z,89.95
2018-02-15T02:29:13.557Z,91.05
2018-02-15T02:31:41.037Z,111.53
2018-02-15T02:34:08.520Z,83.32
2018-02-15T02:36:36.237Z,84.18
2018-02-15T02:39:03.739Z,81.20
2018-02-15T02:41:31.210Z,78.57
2018-02-15T02:43:59.240Z,91.18
2018-02-15T02:46:26.701Z,81.25
2018-02-15T02:48:54.183Z,106.68
2018-02-15T02:51:21.919Z,89.53
2018-02-15T02:53:49.394Z,88.90
2018-02-15T02:56:16.868Z,91.97
2018-02-15T02:58:45.227Z,85.20
2018-02-15T03:01:12.708Z,78.72
2018-02-15T03:03:40.180Z,71.82
2018-02-15T03:06:08.206Z,73.80
2018-02-15T03:08:35.684Z,76.60
2018-02-15T03:11:03.157Z,73.22
2018-02-15T03:13:31.200Z,77.45
2018-02-15T03:16:01.517Z,82.82
2018-02-15T03:18:28.984Z,78.72
2018-02-15T03:20:56.972Z,74.40
2018-02-15T03:23:24.444Z,79.50
2018-02-15T03:25:51.930Z,94.03
2018-02-15T03:28:19.970Z,114.70
2018-02-15T03:30:47.438Z,94.13
2018-02-15T03:33:14.922Z,104.70
2018-02-15T03:35:42.653Z,87.72
2018-02-15T03:38:10.129Z,123.55
2018-02-15T03:40:37.610Z,119.45
2018-02-15T03:43:05.405Z,99.70
2018-02-15T03:45:32.876Z,90.90
2018-02-15T03:48:00.347Z,93.20
2018-02-15T03:50:28.077Z,73.90
2018-02-15T03:52:55.555Z,110.88
2018-02-15T03:55:23.020Z,79.70
2018-02-15T03:57:50.836Z,74.43
2018-02-15T04:00:18.318Z,83.75
2018-02-15T04:02:45.798Z,76.25
2018-02-15T04:05:13.528Z,81.60
2018-02-15T04:07:41.008Z,82.15
2018-02-15T04:10:08.501Z,84.20
2018-02-15T04:12:36.398Z,71.05
2018-02-15T04:15:03.877Z,114.90
2018-02-15T04:17:32.313Z,86.10
2018-02-15T04:20:00.146Z,76.50
2018-02-15T04:22:27.621Z,82.10
2018-02-15T04:24:55.085Z,90.95
2018-02-15T04:27:23.000Z,79.07
2018-02-15T04:29:50.477Z,106.60
2018-02-15T04:32:17.953Z,90.10
2018-02-15T04:34:46.292Z,98.78
2018-02-15T04:37:13.761Z,76.28
2018-02-15T04:39:41.240Z,143.48
2018-02-15T04:42:09.061Z,171.93
2018-02-15T04:44:36.529Z,140.37
2018-02-15T04:47:04.006Z,129.85
2018-02-15T04:49:31.980Z,130.50
2018-02-15T04:51:59.465Z,177.40
2018-02-15T04:54:26.930Z,239.27
2018-02-15T04:56:54.974Z,190.60
2018-02-15T04:59:22.449Z,232.37
2018-02-15T05:01:49.941Z,127.05
2018-02-15T05:04:17.674Z,117.13
2018-02-15T05:06:45.149Z,252.65
2018-02-15T05:09:12.625Z,131.48
2018-02-15T05:11:40.349Z,122.75
2018-02-15T05:14:07.830Z,131.15
2018-02-15T05:16:35.319Z,135.52
2018-02-15T05:19:05.184Z,95.10
2018-02-15T05:21:32.664Z,230.35
2018-02-15T05:24:00.129Z,223.07
2018-02-15T05:26:28.183Z,275.87
2018-02-15T05:28:55.673Z,280.48
2018-02-15T05:31:23.153Z,138.18
2018-02-15T05:33:50.864Z,123.68
2018-02-15T05:36:18.337Z,151.75
2018-02-15T05:38:45.824Z,148.60
2018-02-15T05:41:13.864Z,138.48
2018-02-15T05:43:41.339Z,152.18
2018-02-15T05:46:08.817Z,180.73
2018-02-15T05:48:36.865Z,182.30
2018-02-15T05:51:04.341Z,145.62
2018-02-15T05:53:31.817Z,115.15
2018-02-15T05:55:59.541Z,94.65
2018-02-15T05:58:27.020Z,140.15
2018-02-15T06:00:54.489Z,98.65
2018-02-15T06:03:22.216Z,76.95
2018-02-15T06:05:49.692Z,75.43
2018-02-15T06:08:17.164Z,71.30
2018-02-15T06:10:45.096Z,66.47
2018-02-15T06:13:12.564Z,60.42
2018-02-15T06:15:40.039Z,66.70
2018-02-15T06:18:07.908Z,57.17
2018-02-15T06:20:36.353Z,57.50
2018-02-15T06:23:03.821Z,68.53
2018-02-15T06:25:31.817Z,73.25
2018-02-15T06:27:59.280Z,57.17
2018-02-15T06:30:26.748Z,70.32
2018-02-15T06:32:54.505Z,76.55
2018-02-15T06:35:21.997Z,100.70
2018-02-15T06:37:49.471Z,91.07
2018-02-15T06:40:17.420Z,66.15
2018-02-15T06:42:44.905Z,67.28
2018-02-15T06:45:12.382Z,61.10
2018-02-15T06:47:40.128Z,57.40
2018-02-15T06:50:07.597Z,59.30
2018-02-15T06:52:35.061Z,57.38
2018-02-15T06:55:02.877Z,216.02
2018-02-15T06:57:30.346Z,85.70
2018-02-15T06:59:57.817Z,67.50
2018-02-15T07:02:25.561Z,66.18
2018-02-15T07:04:53.044Z,57.67
2018-02-15T07:07:20.508Z,64.40
2018-02-15T07:09:48.241Z,59.35
2018-02-15T07:12:15.705Z,51.15
2018-02-15T07:14:43.176Z,70.37
2018-02-15T07:17:10.924Z,63.23
2018-02-15T07:19:38.397Z,58.87
2018-02-15T07:22:06.485Z,49.40
2018-02-15T07:24:34.237Z,58.80
2018-02-15T07:27:01.709Z,58.30
2018-02-15T07:29:29.179Z,56.17
2018-02-15T07:31:56.928Z,57.87
2018-02-15T07:34:24.388Z,64.50
2018-02-15T07:36:51.848Z,66.20
2018-02-15T07:39:19.527Z,59.37
2018-02-15T07:41:46.984Z,67.73
2018-02-15T07:44:14.441Z,67.47
2018-02-15T07:46:42.300Z,52.93
2018-02-15T07:49:09.776Z,54.33
2018-02-15T07:51:37.246Z,66.17
2018-02-15T07:54:04.842Z,46.87
2018-02-15T07:56:32.297Z,64.97
2018-02-15T07:58:59.758Z,53.83
2018-02-15T08:01:27.671Z,47.90
2018-02-15T08:03:55.138Z,64.53
2018-02-15T08:06:22.588Z,44.40
2018-02-15T08:08:50.357Z,44.80
2018-02-15T08:11:17.846Z,42.93
2018-02-15T08:13:45.281Z,48.73
2018-02-15T08:16:13.040Z,45.27
2018-02-15T08:18:40.508Z,40.90
2018-02-15T08:21:07.961Z,46.90
2018-02-15T08:23:36.045Z,43.77
2018-02-15T08:26:03.560Z,48.70
2018-02-15T08:28:30.973Z,38.50
2018-02-15T08:30:58.729Z,48.83
2018-02-15T08:33:26.192Z,56.00
2018-02-15T08:35:53.651Z,47.23
2018-02-15T08:38:21.342Z,53.43
2018-02-15T08:40:48.797Z,44.80
2018-02-15T08:43:16.258Z,48.50
2018-02-15T08:45:44.097Z,48.30
2018-02-15T08:48:11.545Z,34.10
2018-02-15T08:50:39.001Z,49.20
2018-02-15T08:53:06.781Z,44.90
2018-02-15T08:55:34.232Z,46.07
2018-02-15T08:58:01.684Z,61.83
2018-02-15T09:00:29.470Z,42.63
2018-02-15T09:02:56.924Z,50.03
2018-02-15T09:05:24.381Z,51.20
2018-02-15T09:07:52.153Z,57.03
2018-02-15T09:10:19.611Z,43.77
2018-02-15T09:12:47.057Z,49.33
2018-02-15T09:15:14.845Z,48.80
2018-02-15T09:17:42.296Z,53.03
2018-02-15T09:20:09.747Z,50.53
2018-02-15T09:22:37.543Z,51.53
2018-02-15T09:25:06.905Z,53.23
2018-02-15T09:27:34.353Z,45.40
2018-02-15T09:30:02.129Z,44.73
2018-02-15T09:32:29.580Z,52.70
2018-02-15T09:34:57.035Z,49.63
2018-02-15T09:37:25.057Z,52.23
2018-02-15T09:39:52.511Z,63.53
2018-02-15T09:42:19.964Z,52.20
2018-02-15T09:44:47.748Z,50.73
2018-02-15T09:47:15.192Z,59.80
2018-02-15T09:49:42.641Z,57.17
2018-02-15T09:52:10.289Z,66.33
2018-02-15T09:54:37.734Z,73.07
2018-02-15T09:57:05.192Z,67.43
2018-02-15T09:59:33.117Z,62.83
2018-02-15T10:02:00.567Z,47.67
2018-02-15T10:04:28.020Z,39.47
2018-02-15T10:06:56.113Z,47.17
2018-02-15T10:09:23.558Z,43.80
2018-02-15T10:11:51.004Z,45.93
2018-02-15T10:14:18.788Z,46.27
2018-02-15T10:16:46.236Z,41.30
2018-02-15T10:19:13.683Z,50.83
2018-02-15T10:21:41.487Z,31.00
2018-02-15T10:24:08.945Z,34.83
2018-02-15T10:26:36.485Z,35.60
2018-02-15T10:29:04.341Z,34.73
2018-02-15T10:31:31.789Z,50.20
2018-02-15T10:33:59.244Z,25.30
2018-02-15T10:36:27.172Z,34.17
2018-02-15T10:38:54.633Z,31.83
2018-02-15T10:41:22.093Z,32.53
2018-02-15T10:43:49.856Z,33.90
2018-02-15T10:46:17.316Z,29.30
2018-02-15T10:48:44.780Z,34.27
2018-02-15T10:51:14.073Z,34.23
2018-02-15T10:53:41.525Z,32.10
2018-02-15T10:56:08.972Z,34.70
2018-02-15T10:58:36.756Z,31.00
2018-02-15T11:01:09.820Z,25.23
2018-02-15T11:03:37.665Z,33.20
2018-02-15T11:06:05.113Z,30.30
2018-02-15T11:08:32.561Z,41.00
2018-02-15T11:11:00.276Z,33.33
2018-02-15T11:13:27.730Z,31.57
2018-02-15T11:15:55.186Z,28.57
2018-02-15T11:18:22.896Z,37.90
2018-02-15T11:20:50.350Z,41.83
2018-02-15T11:23:17.809Z,34.93
2018-02-15T11:25:45.456Z,29.23
2018-02-15T11:28:13.421Z,29.27
2018-02-15T11:30:41.009Z,28.83
2018-02-15T11:33:08.885Z,26.47
2018-02-15T11:35:36.356Z,27.53
2018-02-15T11:38:03.809Z,26.23
2018-02-15T11:40:31.572Z,25.27
2018-02-15T11:42:59.029Z,26.47
2018-02-15T11:45:26.477Z,26.50
2018-02-15T11:47:54.137Z,29.60
2018-02-15T11:50:21.592Z,36.77
2018-02-15T11:52:49.046Z,26.80
2018-02-15T11:55:16.941Z,26.97
2018-02-15T11:57:44.388Z,26.37
2018-02-15T12:00:11.845Z,30.57
2018-02-15T12:02:39.481Z,26.47
2018-02-15T12:05:06.931Z,28.83
2018-02-15T12:07:34.388Z,22.93
2018-02-15T12:10:02.316Z,23.63
2018-02-15T12:12:29.760Z,21.43
2018-02-15T12:14:57.209Z,20.07
2018-02-15T12:17:25.001Z,21.40
2018-02-15T12:19:52.448Z,30.47
2018-02-15T12:22:19.901Z,18.43
2018-02-15T12:24:47.949Z,30.00
2018-02-15T12:27:15.413Z,26.43
2018-02-15T12:29:43.921Z,24.07
2018-02-15T12:32:11.657Z,23.50
2018-02-15T12:34:39.117Z,19.70
2018-02-15T12:37:06.573Z,16.63
2018-02-15T12:39:34.281Z,26.30
2018-02-15T12:42:01.728Z,22.77
2018-02-15T12:44:29.177Z,24.50
2018-02-15T12:46:56.975Z,22.13
2018-02-15T12:49:24.441Z,25.27
2018-02-15T12:51:51.893Z,23.33
2018-02-15T12:54:19.975Z,22.77
2018-02-15T12:56:47.425Z,22.17
2018-02-15T12:59:15.763Z,22.40
2018-02-15T13:01:43.579Z,21.90
2018-02-15T13:04:11.035Z,26.00
2018-02-15T13:06:38.501Z,20.03
2018-02-15T13:09:06.264Z,22.97
2018-02-15T13:11:33.721Z,28.63
2018-02-15T13:14:01.180Z,24.47
2018-02-15T13:16:40.636Z,24.03
2018-02-15T13:19:19.756Z,23.83
2018-02-15T13:21:47.496Z,25.57
2018-02-15T13:24:14.943Z,22.57
2018-02-15T13:26:42.397Z,20.70
2018-02-15T13:29:10.248Z,23.53
2018-02-15T13:31:38.053Z,26.37
2018-02-15T13:34:05.512Z,27.10
2018-02-15T13:36:33.220Z,25.30
2018-02-15T13:39:00.680Z,27.13
2018-02-15T13:41:28.141Z,26.33
2018-02-15T13:43:56.329Z,21.63
2018-02-15T13:46:23.781Z,25.83
2018-02-15T13:48:51.240Z,26.77
2018-02-15T13:51:19.196Z,26.93
2018-02-15T13:53:46.641Z,28.90
2018-02-15T13:56:14.092Z,30.50
2018-02-15T14:05:25.569Z,25.83
2018-02-15T14:07:53.033Z,37.90
2018-02-15T14:10:20.486Z,28.93
2018-02-15T14:12:48.249Z,26.40
2018-02-15T14:15:15.711Z,49.53
2018-02-15T14:17:43.166Z,27.90
2018-02-15T14:20:10.936Z,26.73
2018-02-15T14:22:38.389Z,30.03
2018-02-15T14:25:05.832Z,29.10
2018-02-15T14:27:33.626Z,28.50
2018-02-15T14:30:01.082Z,31.10
2018-02-15T14:32:28.626Z,30.03
2018-02-15T14:34:56.307Z,26.97
2018-02-15T14:37:23.776Z,29.40
2018-02-15T14:39:51.232Z,32.60
2018-02-15T14:42:19.309Z,30.83
2018-02-15T14:44:46.763Z,31.33
2018-02-15T14:47:14.223Z,35.37
2018-02-15T14:49:41.985Z,26.70
2018-02-15T14:52:09.433Z,26.87
2018-02-15T14:54:36.890Z,38.70
2018-02-15T14:57:04.684Z,32.00
2018-02-15T14:59:32.133Z,27.77
2018-02-15T15:01:59.582Z,34.00
2018-02-15T15:04:27.366Z,30.10
2018-02-15T15:06:54.822Z,27.90
2018-02-15T15:09:22.268Z,22.10
2018-02-15T15:11:50.211Z,35.70
2018-02-15T15:14:17.675Z,33.47
2018-02-15T15:16:45.125Z,30.10
2018-02-15T15:19:13.057Z,31.80
2018-02-15T15:21:40.509Z,35.93
2018-02-15T15:24:07.968Z,32.13
2018-02-15T15:26:35.757Z,26.03
2018-02-15T15:29:03.221Z,33.93
2018-02-15T15:31:30.672Z,34.70
2018-02-15T15:33:59.695Z,30.57
2018-02-15T15:36:27.626Z,28.43
2018-02-15T15:38:55.085Z,34.53
2018-02-15T15:41:23.270Z,26.50
2018-02-15T15:43:50.720Z,41.83
2018-02-15T15:46:18.203Z,45.10
2018-02-15T15:48:46.862Z,32.03
2018-02-15T15:51:14.320Z,36.70
2018-02-15T15:53:42.660Z,31.97
2018-02-15T15:56:10.468Z,35.13
2018-02-15T15:58:37.982Z,28.67
2018-02-15T16:01:06.365Z,32.33
2018-02-15T16:03:34.573Z,28.53
2018-02-15T16:06:02.033Z,34.10
2018-02-15T16:08:29.491Z,45.47
2018-02-15T16:10:58.087Z,31.07
2018-02-15T16:13:25.536Z,53.10
2018-02-15T16:15:53.015Z,41.13
2018-02-15T16:18:21.003Z,42.00
2018-02-15T16:20:48.496Z,43.90
2018-02-15T16:23:16.236Z,27.93
2018-02-15T16:25:43.985Z,38.07
2018-02-15T16:28:11.455Z,31.00
2018-02-15T16:30:38.919Z,46.00
2018-02-15T16:33:08.145Z,38.83
2018-02-15T16:35:36.977Z,41.30
2018-02-15T16:38:04.415Z,26.13
2018-02-15T16:40:32.122Z,40.07
2018-02-15T16:43:00.196Z,31.57
2018-02-15T16:45:27.730Z,29.50
2018-02-15T16:47:56.920Z,38.10
2018-02-15T16:50:24.371Z,37.33
2018-02-15T16:52:51.828Z,51.10
2018-02-15T16:55:19.655Z,38.67
2018-02-15T16:57:47.105Z,31.77
2018-02-15T17:00:14.556Z,42.73
2018-02-15T17:02:42.646Z,41.20
2018-02-15T17:05:10.120Z,32.53
2018-02-15T17:07:37.569Z,36.97
2018-02-15T17:10:05.340Z,24.93
2018-02-15T17:12:32.796Z,29.97
2018-02-15T17:15:00.250Z,39.13
2018-02-15T17:17:28.029Z,31.37
2018-02-15T17:19:55.509Z,31.93
2018-02-15T17:22:22.964Z,33.20
2018-02-15T17:24:50.804Z,32.60
2018-02-15T17:27:18.451Z,31.40
2018-02-15T17:29:45.910Z,28.87
2018-02-15T17:32:13.704Z,36.37
2018-02-15T17:34:41.168Z,41.43
2018-02-15T17:37:09.330Z,35.97
2018-02-15T17:39:37.010Z,27.33
2018-02-15T17:42:04.641Z,36.13
2018-02-15T17:44:32.089Z,56.30
2018-02-15T17:46:59.983Z,55.57
2018-02-15T17:49:27.428Z,47.17
2018-02-15T17:51:54.879Z,36.17
2018-02-15T17:54:22.732Z,32.50
2018-02-15T17:56:50.190Z,34.80
2018-02-15T17:59:17.644Z,47.47
2018-02-15T18:01:45.370Z,28.27
2018-02-15T18:04:12.836Z,32.47
2018-02-15T18:06:40.304Z,39.97
2018-02-15T18:09:08.052Z,38.83
2018-02-15T18:11:35.500Z,56.97
2018-02-15T18:14:02.987Z,48.20
2018-02-15T18:16:30.734Z,35.83
2018-02-15T18:18:58.177Z,45.77
2018-02-15T18:21:25.615Z,38.90
2018-02-15T18:23:53.430Z,32.87
2018-02-15T18:26:20.876Z,28.67
2018-02-15T18:28:48.363Z,43.63
2018-02-15T18:31:16.370Z,35.30
2018-02-15T18:33:43.841Z,32.63
2018-02-15T18:36:11.296Z,44.57
2018-02-15T18:38:39.417Z,27.77
2018-02-15T18:41:06.887Z,33.23
2018-02-15T18:43:34.350Z,31.80
2018-02-15T18:46:02.104Z,26.80
2018-02-15T18:48:29.553Z,49.70
2018-02-15T18:50:56.997Z,40.60
2018-02-15T18:53:24.644Z,32.00
2018-02-15T18:55:52.097Z,30.23
2018-02-15T18:58:19.546Z,36.07
2018-02-15T19:00:47.482Z,31.37
2018-02-15T19:03:15.151Z,30.50
2018-02-15T19:05:42.613Z,37.93
2018-02-15T19:08:10.480Z,41.73
2018-02-15T19:10:37.930Z,33.63
2018-02-15T19:13:05.378Z,39.60
2018-02-15T19:15:33.164Z,31.63
2018-02-15T19:18:00.624Z,38.03
2018-02-15T19:20:28.087Z,37.50
2018-02-15T19:22:55.671Z,50.00
2018-02-15T19:25:23.124Z,40.63
2018-02-15T19:27:50.772Z,40.53
2018-02-15T19:30:18.720Z,32.80
2018-02-15T19:32:46.175Z,45.20
2018-02-15T19:35:13.825Z,41.70
2018-02-15T19:37:41.833Z,60.33
2018-02-15T19:40:09.984Z,54.00
2018-02-15T19:42:37.437Z,48.63
2018-02-15T19:45:06.060Z,49.17
2018-02-15T19:47:33.529Z,52.70
2018-02-15T19:50:01.313Z,56.57
2018-02-15T19:52:29.049Z,49.30
2018-02-15T19:54:56.515Z,65.17
2018-02-15T19:57:23.973Z,65.27
2018-02-15T19:59:51.739Z,64.20
2018-02-15T20:02:19.196Z,57.30
2018-02-15T20:04:46.671Z,72.63
2018-02-15T20:07:14.446Z,75.50
2018-02-15T20:09:41.897Z,65.30
2018-02-15T20:12:09.354Z,55.70
2018-02-15T20:14:37.112Z,50.57
2018-02-15T20:17:04.584Z,73.47
2018-02-15T20:19:32.044Z,63.37
2018-02-15T20:21:59.679Z,101.60
2018-02-15T20:24:27.136Z,79.60
2018-02-15T20:27:00.873Z,70.97
2018-02-15T20:29:28.331Z,73.27
2018-02-15T20:31:55.796Z,57.70
2018-02-15T20:34:23.555Z,56.20
2018-02-15T20:36:51.017Z,69.03
2018-02-15T20:39:24.313Z,63.40
2018-02-15T20:41:54.308Z,63.93
2018-02-15T20:44:21.769Z,60.93
2018-02-15T20:46:49.440Z,72.83
2018-02-15T20:49:22.436Z,72.30
2018-02-15T20:51:55.685Z,58.87
2018-02-15T20:54:28.648Z,77.33
2018-02-15T20:56:56.493Z,85.63
2018-02-15T20:59:23.950Z,88.20
2018-02-15T21:01:51.400Z,69.27
2018-02-15T21:04:19.183Z,79.20
2018-02-15T21:06:46.645Z,66.43
2018-02-15T21:09:14.096Z,63.87
2018-02-15T21:11:41.881Z,65.50
2018-02-15T21:14:09.358Z,76.20
2018-02-15T21:16:36.823Z,83.00
2018-02-15T21:19:04.554Z,63.73
2018-02-15T21:21:32.004Z,67.43
2018-02-15T21:23:59.467Z,51.50
2018-02-15T21:26:27.248Z,92.23
2018-02-15T21:28:54.708Z,74.90
2018-02-15T21:31:22.160Z,66.57
2018-02-15T21:33:49.933Z,79.07
2018-02-15T21:36:17.401Z,75.47
2018-02-15T21:38:44.860Z,75.07
2018-02-15T21:41:12.925Z,60.87
2018-02-15T21:43:40.772Z,68.87
2018-02-15T21:46:08.234Z,80.67
2018-02-15T21:48:36.060Z,58.97
2018-02-15T21:51:03.517Z,76.53
2018-02-15T21:53:30.975Z,65.03
2018-02-15T21:55:58.816Z,68.30
2018-02-15T21:58:26.636Z,73.17
2018-02-15T22:00:54.093Z,69.00
2018-02-15T22:03:22.216Z,63.60
2018-02-15T22:05:49.680Z,63.63
2018-02-15T22:08:17.141Z,82.43
2018-02-15T22:10:44.956Z,76.77
2018-02-15T22:13:12.415Z,80.83
2018-02-15T22:15:39.887Z,81.90
2018-02-15T22:18:07.857Z,72.57
2018-02-15T22:20:35.308Z,94.33
2018-02-15T22:23:02.764Z,68.47
2018-02-15T22:25:30.596Z,83.43
2018-02-15T22:27:58.056Z,76.67
2018-02-15T22:30:25.513Z,72.93
2018-02-15T22:32:53.281Z,76.50
2018-02-15T22:35:20.739Z,77.37
2018-02-15T22:37:48.197Z,64.07
2018-02-15T22:40:16.425Z,76.13
2018-02-15T22:42:43.884Z,75.37
2018-02-15T22:45:12.673Z,71.70
2018-02-15T22:47:41.100Z,82.87
2018-02-15T22:50:08.945Z,75.60
2018-02-15T22:52:36.400Z,90.40
2018-02-15T22:55:04.243Z,88.53
2018-02-15T22:57:31.706Z,85.37
2018-02-15T22:59:59.162Z,69.50
2018-02-15T23:02:27.096Z,89.60
2018-02-15T23:04:54.550Z,75.43
2018-02-15T23:07:22.000Z,69.07
2018-02-15T23:09:49.784Z,82.90
2018-02-15T23:12:17.240Z,71.43
2018-02-15T23:14:44.701Z,88.57
2018-02-15T23:17:12.773Z,95.40
2018-02-15T23:19:40.231Z,89.87
2018-02-15T23:22:07.688Z,66.20
2018-02-15T23:24:35.456Z,75.57
2018-02-15T23:27:02.908Z,65.13
2018-02-15T23:29:30.371Z,76.27
2018-02-15T23:31:58.145Z,68.77
2018-02-15T23:34:25.604Z,57.07
2018-02-15T23:36:53.065Z,56.87
2018-02-15T23:39:20.841Z,61.53
2018-02-15T23:41:48.305Z,61.87
2018-02-15T23:44:15.764Z,60.63
2018-02-15T23:46:44.149Z,60.90
2018-02-15T23:49:11.615Z,63.50
2018-02-15T23:51:39.071Z,67.90
2018-02-15T23:54:06.822Z,67.67
2018-02-15T23:56:34.281Z,76.40
2018-02-15T23:59:01.740Z,65.83
